Time;durP1;ratioP1;P1;durP2;ratioP2;P2;SDS_P1;SDS_P2;PMS_P1;PMS_P2;Temp;Humidity;BMP_temperature;BMP_pressure;BME280_temperature;BME280_humidity;BME280_pressure;Samples;Min_cycle;Max_cycle;Signal;HPM_P1;HPM_P2
2021/05/13 00:00:52;;;;;;;9.73;1.77;;;;;;;11.71;81.92;100811.63;6177049;28;20054;-76
2021/05/13 00:03:55;;;;;;;13.32;2.10;;;;;;;11.44;83.71;100817.50;6176770;28;20058;-76
2021/05/13 00:06:56;;;;;;;11.40;1.90;;;;;;;11.41;86.75;100818.53;6177199;28;20101;-77
2021/05/13 00:09:56;;;;;;;7.80;1.85;;;;;;;11.38;86.11;100821.34;6176815;28;20086;-76
2021/05/13 00:12:59;;;;;;;10.65;1.98;;;;;;;11.36;86.75;100825.00;6176828;28;20055;-76
2021/05/13 00:16:01;;;;;;;9.50;1.80;;;;;;;11.34;85.19;100822.44;6176792;28;20051;-76
2021/05/13 00:19:06;;;;;;;11.82;1.92;;;;;;;11.36;85.95;100817.94;6176851;28;20062;-76
2021/05/13 00:22:07;;;;;;;14.30;2.40;;;;;;;11.38;88.11;100818.69;6176954;28;20089;-76
2021/05/13 00:25:09;;;;;;;15.60;2.83;;;;;;;11.38;89.47;100818.69;6176240;28;20042;-77
2021/05/13 00:28:10;;;;;;;10.82;2.10;;;;;;;11.37;89.58;100814.38;6176345;28;20529;-76
2021/05/13 00:31:12;;;;;;;7.88;1.63;;;;;;;11.34;90.41;100819.81;6176336;28;20082;-77
2021/05/13 00:34:12;;;;;;;5.18;2.15;;;;;;;11.32;90.34;100815.56;6176097;28;20060;-77
2021/05/13 00:37:13;;;;;;;6.03;1.90;;;;;;;11.26;91.04;100814.09;6176341;28;20098;-76
2021/05/13 00:40:16;;;;;;;7.78;1.83;;;;;;;11.26;89.95;100808.84;6176364;28;20581;-76
2021/05/13 00:43:16;;;;;;;7.20;1.75;;;;;;;11.23;90.04;100797.66;6176337;28;20117;-77
2021/05/13 00:46:19;;;;;;;8.13;2.03;;;;;;;11.23;89.51;100800.31;6176497;28;20042;-77
2021/05/13 00:49:21;;;;;;;11.52;2.13;;;;;;;11.39;86.58;100790.59;6176347;28;20108;-77
2021/05/13 00:52:23;;;;;;;10.43;1.95;;;;;;;11.23;86.24;100787.16;6176239;28;20062;-76
2021/05/13 00:55:24;;;;;;;9.30;2.10;;;;;;;11.21;86.46;100792.47;6176071;28;20058;-76
2021/05/13 00:58:27;;;;;;;7.35;1.80;;;;;;;11.15;85.57;100784.94;6176238;28;20054;-76
2021/05/13 01:01:38;;;;;;;11.88;2.55;;;;;;;11.22;85.39;100786.31;6176384;28;20050;-77
2021/05/13 01:04:40;;;;;;;8.82;1.98;;;;;;;11.16;85.76;100786.63;6175795;28;20051;-76
2021/05/13 01:07:40;;;;;;;7.55;1.88;;;;;;;11.09;85.70;100782.66;6175429;28;20423;-76
2021/05/13 01:10:41;;;;;;;7.53;1.75;;;;;;;11.10;87.22;100779.06;6175315;28;20053;-76
2021/05/13 01:13:59;;;;;;;9.80;2.00;;;;;;;11.02;86.85;100774.22;6175364;28;20051;-77
2021/05/13 01:17:14;;;;;;;6.82;2.35;;;;;;;11.03;88.20;100770.66;6176558;28;20047;-77
2021/05/13 01:20:15;;;;;;;11.13;1.90;;;;;;;11.00;88.17;100759.47;6175092;28;20459;-77
2021/05/13 01:23:18;;;;;;;10.65;2.22;;;;;;;11.03;87.63;100749.63;6175485;28;20129;-77
2021/05/13 01:26:19;;;;;;;10.73;2.13;;;;;;;10.97;88.25;100749.13;6175498;28;20189;-77
2021/05/13 01:29:22;;;;;;;9.77;1.98;;;;;;;10.99;90.08;100747.25;6175242;28;20047;-77
2021/05/13 01:32:22;;;;;;;9.70;1.90;;;;;;;11.16;86.26;100734.84;6174828;28;20051;-76
2021/05/13 01:35:23;;;;;;;8.23;1.90;;;;;;;11.00;84.26;100754.22;6190550;28;20057;-76
2021/05/13 01:38:25;;;;;;;10.38;2.30;;;;;;;10.98;88.51;100758.69;6185840;28;20130;-76
2021/05/13 01:41:26;;;;;;;8.07;2.50;;;;;;;10.99;89.29;100757.75;6192126;28;20431;-77
2021/05/13 01:44:27;;;;;;;9.52;1.80;;;;;;;11.02;88.37;100760.22;6195142;28;20052;-77
2021/05/13 01:47:34;;;;;;;13.25;2.20;;;;;;;10.95;86.95;100757.09;6174956;28;20550;-79
2021/05/13 01:50:35;;;;;;;7.03;1.58;;;;;;;10.97;88.21;100754.38;6174744;28;20074;-77
2021/05/13 01:53:39;;;;;;;7.30;2.13;;;;;;;11.04;85.79;100747.88;6175128;28;20058;-79
2021/05/13 01:56:41;;;;;;;8.57;2.08;;;;;;;10.94;85.54;100750.13;6174343;28;20053;-76
2021/05/13 01:59:41;;;;;;;12.25;1.95;;;;;;;10.90;88.28;100757.34;6174632;28;20105;-76
2021/05/13 02:02:44;;;;;;;6.40;1.73;;;;;;;10.89;88.53;100752.16;6174126;28;20467;-75
2021/05/13 02:05:45;;;;;;;9.63;1.88;;;;;;;10.86;88.56;100742.69;6175110;28;20142;-76
2021/05/13 02:08:46;;;;;;;9.07;2.00;;;;;;;11.02;86.19;100744.47;6174053;28;20514;-77
2021/05/13 02:11:47;;;;;;;4.57;1.90;;;;;;;10.92;86.39;100731.81;6174110;28;20050;-77
2021/05/13 02:14:48;;;;;;;6.57;2.22;;;;;;;10.82;88.09;100732.41;6174074;28;20487;-79
2021/05/13 02:17:49;;;;;;;8.07;2.03;;;;;;;10.85;87.33;100734.84;6173667;28;20513;-78
2021/05/13 02:20:51;;;;;;;8.80;2.22;;;;;;;10.85;87.17;100740.13;6173699;28;20057;-78
2021/05/13 02:23:52;;;;;;;9.77;2.17;;;;;;;10.88;86.37;100739.97;6173655;28;20415;-77
2021/05/13 02:26:53;;;;;;;8.98;2.40;;;;;;;10.76;86.54;100740.63;6173997;28;20495;-76
2021/05/13 02:29:54;;;;;;;5.40;2.10;;;;;;;10.73;86.08;100738.19;6172911;28;20061;-77
2021/05/13 02:32:55;;;;;;;7.88;1.90;;;;;;;10.68;86.83;100735.78;6172997;28;20047;-77
2021/05/13 02:35:56;;;;;;;8.60;2.22;;;;;;;10.74;86.84;100743.34;6173950;28;20046;-76
2021/05/13 02:38:57;;;;;;;11.85;2.55;;;;;;;10.65;87.27;100739.41;6173873;28;20446;-77
2021/05/13 02:41:58;;;;;;;9.48;2.40;;;;;;;10.63;89.70;100738.66;6173696;28;20419;-75
2021/05/13 02:44:59;;;;;;;6.97;2.38;;;;;;;10.65;89.85;100734.16;6173454;28;20050;-77
2021/05/13 02:48:00;;;;;;;7.75;2.67;;;;;;;10.66;88.44;100735.00;6173871;28;20054;-77
2021/05/13 02:51:01;;;;;;;11.45;2.83;;;;;;;10.60;89.15;100741.44;6173455;28;20063;-77
2021/05/13 02:54:03;;;;;;;9.73;2.97;;;;;;;10.79;87.46;100730.78;6173562;28;20051;-77
2021/05/13 02:57:04;;;;;;;8.63;2.20;;;;;;;10.65;87.58;100726.28;6173576;28;20046;-77
2021/05/13 03:00:26;;;;;;;9.90;2.40;;;;;;;10.64;90.72;100729.84;6173745;28;20047;-77
2021/05/13 03:03:27;;;;;;;7.68;2.55;;;;;;;10.73;87.90;100731.13;6173414;28;20055;-77
2021/05/13 03:06:28;;;;;;;10.00;2.75;;;;;;;10.64;88.06;100729.00;6173683;28;20051;-77
2021/05/13 03:09:30;;;;;;;10.00;3.17;;;;;;;10.74;85.45;100727.56;6173513;28;20053;-77
2021/05/13 03:12:31;;;;;;;9.50;2.75;;;;;;;10.55;86.22;100724.25;6173686;28;20047;-76
2021/05/13 03:15:32;;;;;;;9.02;2.95;;;;;;;10.57;86.75;100719.75;6173158;28;20058;-76
2021/05/13 03:18:34;;;;;;;8.60;2.80;;;;;;;10.50;88.21;100721.00;6173721;28;20062;-77
2021/05/13 03:21:37;;;;;;;8.88;2.90;;;;;;;10.48;87.79;100715.81;6173215;28;20046;-77
2021/05/13 03:24:44;;;;;;;8.35;3.20;;;;;;;10.50;88.25;100727.13;6173269;28;20422;-77
2021/05/13 03:27:48;;;;;;;16.05;3.70;;;;;;;10.46;88.77;100722.94;6173397;28;20043;-77
2021/05/13 03:30:49;;;;;;;19.45;3.63;;;;;;;10.49;87.71;100725.44;6174488;28;20058;-77
2021/05/13 03:33:50;;;;;;;8.27;2.83;;;;;;;10.48;89.31;100721.06;6255757;23;20081;-77
2021/05/13 03:36:51;;;;;;;10.80;2.95;;;;;;;10.44;88.43;100719.53;6251516;28;20049;-78
2021/05/13 03:39:52;;;;;;;14.27;3.30;;;;;;;10.43;88.69;100709.97;6251763;28;20111;-77
2021/05/13 03:42:53;;;;;;;10.57;3.83;;;;;;;10.43;90.91;100706.50;6227383;28;20050;-77
2021/05/13 03:45:54;;;;;;;10.15;3.42;;;;;;;10.45;89.92;100702.03;6226296;28;20042;-76
2021/05/13 03:48:55;;;;;;;19.60;3.90;;;;;;;10.46;89.81;100706.34;6226211;28;20061;-77
2021/05/13 03:51:56;;;;;;;11.52;3.67;;;;;;;10.40;88.03;100710.13;6226207;28;20096;-76
2021/05/13 03:54:57;;;;;;;9.73;3.58;;;;;;;10.44;88.35;100713.44;6228729;28;20058;-76
2021/05/13 03:58:00;;;;;;;9.70;3.42;;;;;;;10.42;88.83;100713.53;6228739;28;20486;-77
2021/05/13 04:01:09;;;;;;;15.23;3.97;;;;;;;10.29;88.66;100708.06;6232045;28;20077;-77
2021/05/13 04:04:10;;;;;;;;;;;;;;;10.28;89.50;100713.41;6229305;28;20056;-77
2021/05/13 04:07:11;;;;;;;12.70;3.70;;;;;;;10.30;89.92;100719.44;6231112;28;19929;-77
2021/05/13 04:10:13;;;;;;;8.77;3.58;;;;;;;10.21;89.30;100706.75;6234522;28;20107;-77
2021/05/13 04:13:15;;;;;;;15.35;4.13;;;;;;;10.29;91.66;100715.94;6230316;28;20050;-77
2021/05/13 04:16:24;;;;;;;13.52;3.83;;;;;;;10.34;91.06;100702.56;6234182;28;20050;-77
2021/05/13 04:19:24;;;;;;;10.73;3.95;;;;;;;10.24;90.22;100696.97;6234092;28;20054;-79
2021/05/13 04:22:25;;;;;;;9.90;3.42;;;;;;;10.32;91.74;100699.19;6231778;28;20265;-77
2021/05/13 04:25:27;;;;;;;11.48;4.03;;;;;;;10.29;91.71;100697.56;6227638;28;20050;-77
2021/05/13 04:28:28;;;;;;;17.33;4.45;;;;;;;10.24;91.82;100693.47;6229169;28;20418;-77
2021/05/13 04:31:29;;;;;;;16.13;4.22;;;;;;;10.27;92.46;100693.34;6229515;28;20054;-77
2021/05/13 04:34:29;;;;;;;13.90;4.88;;;;;;;10.25;90.88;100688.16;6226754;28;20092;-77
2021/05/13 04:37:30;;;;;;;8.73;4.10;;;;;;;10.35;89.97;100688.50;6225531;28;20483;-78
2021/05/13 04:40:32;;;;;;;15.68;5.15;;;;;;;10.21;89.78;100685.72;6224981;28;20053;-77
2021/05/13 04:43:34;;;;;;;13.07;4.47;;;;;;;10.17;90.05;100677.16;6224973;28;20502;-79
2021/05/13 04:46:36;;;;;;;15.32;4.72;;;;;;;10.15;91.32;100679.88;6226649;28;20169;-77
2021/05/13 04:49:37;;;;;;;11.05;4.40;;;;;;;10.12;90.13;100671.31;6226387;28;20125;-78
2021/05/13 04:52:39;;;;;;;18.95;4.97;;;;;;;10.09;90.66;100672.34;6226972;28;20069;-80
2021/05/13 04:55:41;;;;;;;12.85;4.65;;;;;;;10.03;91.92;100663.91;6226546;28;20112;-77
2021/05/13 04:58:43;;;;;;;13.77;4.93;;;;;;;10.08;92.66;100662.78;6226064;28;20045;-77
2021/05/13 05:01:44;;;;;;;15.88;5.00;;;;;;;10.13;91.30;100665.16;6226543;28;20045;-78
2021/05/13 05:04:44;;;;;;;15.75;4.95;;;;;;;10.08;92.66;100654.00;6226076;28;20422;-77
2021/05/13 05:07:45;;;;;;;22.98;6.35;;;;;;;10.09;91.50;100650.47;6226029;28;20092;-78
2021/05/13 05:10:47;;;;;;;12.40;5.03;;;;;;;10.07;91.20;100647.91;6226107;28;20128;-77
2021/05/13 05:13:48;;;;;;;16.38;4.75;;;;;;;10.01;92.51;100650.88;6225911;28;20084;-78
2021/05/13 05:16:49;;;;;;;19.25;6.68;;;;;;;10.21;92.65;100648.97;6225697;28;20060;-77
2021/05/13 05:19:50;;;;;;;15.02;4.72;;;;;;;10.20;91.25;100650.75;6225520;28;20129;-77
2021/05/13 05:22:50;;;;;;;15.02;4.90;;;;;;;10.20;91.41;100645.50;6225355;28;20057;-77
2021/05/13 05:25:52;;;;;;;13.57;4.80;;;;;;;10.19;91.19;100645.59;6225495;28;20050;-77
2021/05/13 05:28:53;;;;;;;15.20;5.32;;;;;;;10.17;93.05;100637.78;6230637;28;20073;-77
2021/05/13 05:31:54;;;;;;;15.85;6.05;;;;;;;10.33;92.81;100638.69;6235726;28;20057;-77
2021/05/13 05:34:55;;;;;;;18.55;5.30;;;;;;;10.38;89.71;100625.31;6234062;28;20046;-77
2021/05/13 05:37:57;;;;;;;21.83;6.03;;;;;;;10.28;90.66;100624.97;6236181;28;20049;-78
2021/05/13 05:40:58;;;;;;;18.42;6.03;;;;;;;10.30;90.64;100627.50;6235576;28;20074;-77
2021/05/13 05:43:59;;;;;;;17.73;5.63;;;;;;;10.30;89.55;100627.50;6235283;28;20516;-77
2021/05/13 05:47:00;;;;;;;24.85;6.20;;;;;;;10.34;90.27;100621.16;6235418;28;20046;-77
2021/05/13 05:50:01;;;;;;;26.73;6.03;;;;;;;10.38;91.83;100617.44;6242953;28;20053;-77
2021/05/13 05:53:03;;;;;;;13.55;5.05;;;;;;;10.59;90.42;100620.66;6239219;28;20541;-77
2021/05/13 05:56:05;;;;;;;18.95;6.45;;;;;;;10.55;89.93;100616.50;6229222;28;20510;-78
2021/05/13 05:59:07;;;;;;;13.40;5.57;;;;;;;10.65;87.78;100617.69;6225194;28;20061;-79
2021/05/13 06:02:07;;;;;;;24.20;5.63;;;;;;;10.45;90.54;100615.31;6224276;28;20080;-78
2021/05/13 06:05:10;;;;;;;27.30;6.53;;;;;;;10.49;90.48;100608.94;6224747;28;20046;-78
2021/05/13 06:08:11;;;;;;;15.95;5.53;;;;;;;10.66;88.32;100608.88;6224768;28;20042;-78
2021/05/13 06:11:14;;;;;;;14.93;5.38;;;;;;;10.60;89.30;100604.81;6225203;28;20052;-78
2021/05/13 06:14:15;;;;;;;15.02;5.93;;;;;;;10.53;90.90;100607.84;6223600;28;20053;-78
2021/05/13 06:17:16;;;;;;;20.90;5.82;;;;;;;10.51;90.03;100597.44;6225105;28;20053;-78
2021/05/13 06:20:19;;;;;;;19.52;6.10;;;;;;;10.69;90.40;100597.34;6224670;28;20460;-77
2021/05/13 06:23:20;;;;;;;15.77;5.32;;;;;;;10.69;88.05;100610.47;6224050;28;20046;-78
2021/05/13 06:26:24;;;;;;;20.17;4.82;;;;;;;10.64;87.00;100603.69;6223946;28;20049;-78
2021/05/13 06:29:27;;;;;;;18.67;5.55;;;;;;;10.61;89.15;100603.88;6224003;28;20060;-77
2021/05/13 06:32:28;;;;;;;14.18;5.22;;;;;;;10.68;89.30;100607.00;6223773;28;20137;-78
2021/05/13 06:35:28;;;;;;;14.75;5.53;;;;;;;10.77;87.81;100603.03;6223354;28;20583;-78
2021/05/13 06:38:30;;;;;;;14.82;5.57;;;;;;;10.87;87.36;100605.03;6224203;28;20514;-77
2021/05/13 06:41:32;;;;;;;14.05;5.90;;;;;;;10.79;89.02;100606.41;6223284;28;20859;-77
2021/05/13 06:44:33;;;;;;;21.15;5.97;;;;;;;11.02;86.74;100605.94;6223710;28;20054;-77
2021/05/13 06:47:34;;;;;;;18.77;5.47;;;;;;;10.97;84.09;100605.34;6223879;28;20141;-78
2021/05/13 06:50:34;;;;;;;13.55;5.18;;;;;;;10.81;85.19;100609.78;6223995;28;20058;-78
2021/05/13 06:53:35;;;;;;;17.73;6.03;;;;;;;10.74;86.71;100617.16;6223683;28;20510;-77
2021/05/13 06:56:37;;;;;;;15.98;6.55;;;;;;;10.83;88.42;100606.13;6222772;28;20042;-77
2021/05/13 06:59:41;;;;;;;16.77;6.13;;;;;;;10.92;89.05;100608.25;6224011;28;20050;-77
2021/05/13 07:02:43;;;;;;;19.08;5.90;;;;;;;10.99;87.93;100607.88;6223097;28;20104;-77
2021/05/13 07:05:44;;;;;;;21.17;7.07;;;;;;;11.02;88.83;100603.31;6226837;28;20042;-77
2021/05/13 07:08:45;;;;;;;13.38;5.88;;;;;;;11.22;85.00;100604.81;6228462;28;20100;-78
2021/05/13 07:11:46;;;;;;;21.08;6.13;;;;;;;11.12;85.14;100603.63;6228597;28;20049;-78
2021/05/13 07:14:47;;;;;;;22.95;6.00;;;;;;;11.05;85.51;100605.75;6228254;28;20053;-77
2021/05/13 07:17:48;;;;;;;14.55;6.05;;;;;;;11.16;85.16;100603.34;6228021;28;20561;-78
2021/05/13 07:20:49;;;;;;;15.85;5.43;;;;;;;11.26;85.21;100602.81;6228392;28;20057;-78
2021/05/13 07:23:50;;;;;;;12.43;5.63;;;;;;;11.20;84.64;100606.66;6228513;28;20045;-77
2021/05/13 07:26:51;;;;;;;15.27;5.82;;;;;;;11.39;82.41;100596.75;6228120;28;20052;-78
2021/05/13 07:29:52;;;;;;;15.93;6.03;;;;;;;11.28;85.12;100604.44;6228247;28;20072;-78
2021/05/13 07:32:54;;;;;;;15.13;6.07;;;;;;;11.37;84.42;100593.38;6227851;28;20132;-78
2021/05/13 07:35:54;;;;;;;14.25;6.55;;;;;;;11.39;84.90;100602.00;6244844;28;20052;-78
2021/05/13 07:38:55;;;;;;;18.00;6.78;;;;;;;11.43;85.69;100605.31;6240719;28;20484;-77
2021/05/13 07:41:57;;;;;;;16.58;6.43;;;;;;;11.56;84.87;100600.16;6227940;28;20057;-78
2021/05/13 07:44:58;;;;;;;19.85;5.72;;;;;;;11.65;80.48;100600.47;6227798;28;20513;-79
2021/05/13 07:47:59;;;;;;;14.82;5.18;;;;;;;11.57;81.85;100593.94;6227554;28;20041;-77
2021/05/13 07:51:00;;;;;;;16.58;5.63;;;;;;;11.67;81.40;100593.31;6227357;28;20418;-78
2021/05/13 07:54:01;;;;;;;12.73;5.68;;;;;;;11.72;82.12;100590.41;6227149;28;20050;-78
2021/05/13 07:57:07;;;;;;;13.43;6.03;;;;;;;11.77;81.15;100595.41;6239907;28;20045;-78
2021/05/13 08:00:08;;;;;;;16.10;5.25;;;;;;;11.73;81.30;100597.38;6244833;28;20041;-77
2021/05/13 08:03:09;;;;;;;12.70;4.80;;;;;;;11.85;78.97;100595.78;6236244;28;20053;-78
2021/05/13 08:06:11;;;;;;;12.70;4.45;;;;;;;11.95;76.56;100596.09;6242413;28;20077;-78
2021/05/13 08:09:12;;;;;;;12.95;4.03;;;;;;;11.86;77.96;100595.72;6251439;28;20502;-78
2021/05/13 08:12:14;;;;;;;17.85;6.03;;;;;;;12.00;76.77;100586.97;6251636;28;20088;-78
2021/05/13 08:15:15;;;;;;;14.15;4.82;;;;;;;12.01;77.78;100586.03;6251849;28;20058;-78
2021/05/13 08:18:16;;;;;;;16.08;5.85;;;;;;;12.30;75.70;100585.97;6250778;28;20046;-78
2021/05/13 08:21:17;;;;;;;14.13;4.75;;;;;;;12.06;76.73;100578.69;6251579;28;20073;-78
2021/05/13 08:24:18;;;;;;;19.23;5.35;;;;;;;12.25;76.89;100583.63;6245622;28;20057;-78
2021/05/13 08:27:19;;;;;;;13.27;4.40;;;;;;;12.35;76.47;100579.50;6227109;28;20053;-78
2021/05/13 08:30:21;;;;;;;10.82;4.43;;;;;;;12.42;75.41;100577.31;6226058;28;20061;-78
2021/05/13 08:33:22;;;;;;;12.05;4.13;;;;;;;12.37;74.10;100568.84;6226147;28;20049;-78
2021/05/13 08:36:23;;;;;;;12.52;4.75;;;;;;;12.44;73.74;100581.56;6226355;28;20502;-78
2021/05/13 08:39:24;;;;;;;12.30;4.05;;;;;;;12.70;74.06;100581.66;6225946;28;20458;-78
2021/05/13 08:42:29;;;;;;;10.38;4.47;;;;;;;12.76;73.46;100586.50;6226540;28;20053;-78
2021/05/13 08:45:33;;;;;;;12.80;3.42;;;;;;;12.88;72.65;100576.97;6225646;28;20076;-78
2021/05/13 08:48:34;;;;;;;6.32;3.10;;;;;;;12.93;71.01;100580.16;6226359;28;20046;-78
2021/05/13 08:51:38;;;;;;;10.07;2.55;;;;;;;13.14;68.57;100586.66;6246273;28;20053;-79
2021/05/13 08:54:50;;;;;;;10.63;4.00;;;;;;;13.23;69.86;100587.88;6242237;28;20514;-78
2021/05/13 08:57:51;;;;;;;11.45;4.40;;;;;;;13.04;72.45;100577.66;6243571;28;20038;-78
2021/05/13 09:00:53;;;;;;;11.88;4.93;;;;;;;13.18;71.25;100576.75;6245956;28;20041;-78
2021/05/13 09:03:54;;;;;;;11.30;3.95;;;;;;;13.08;72.83;100575.63;6249770;28;20054;-78
2021/05/13 09:07:08;;;;;;;12.02;4.03;;;;;;;13.10;72.74;100576.41;6240151;28;20052;-77
2021/05/13 09:10:11;;;;;;;11.25;4.50;;;;;;;13.27;73.18;100570.03;6237798;28;20391;-78
2021/05/13 09:13:26;;;;;;;10.60;4.60;;;;;;;13.42;70.67;100572.47;6237072;28;20079;-78
2021/05/13 09:16:29;;;;;;;7.35;3.70;;;;;;;13.39;70.55;100558.63;6237175;28;20490;-78
2021/05/13 09:19:33;;;;;;;11.10;4.72;;;;;;;13.35;70.84;100560.66;6237504;28;20083;-78
2021/05/13 09:22:34;;;;;;;11.85;4.50;;;;;;;13.47;71.95;100558.97;6236180;28;20046;-78
2021/05/13 09:25:35;;;;;;;10.25;4.40;;;;;;;13.52;73.22;100558.63;6235307;28;20045;-77
2021/05/13 09:28:37;;;;;;;12.13;5.20;;;;;;;13.50;72.22;100556.13;6234633;28;20064;-77
2021/05/13 09:31:40;;;;;;;11.32;4.32;;;;;;;13.56;71.47;100554.84;6235692;28;20421;-78
2021/05/13 09:34:41;;;;;;;15.43;3.70;;;;;;;13.67;68.94;100550.53;6236896;28;20054;-78
2021/05/13 09:37:46;;;;;;;12.05;4.25;;;;;;;13.77;70.61;100555.16;6244780;23;20375;-78
2021/05/13 09:40:50;;;;;;;10.80;3.70;;;;;;;14.15;64.29;100545.34;6175983;28;20054;-78
2021/05/13 09:43:52;;;;;;;13.40;3.83;;;;;;;13.77;67.83;100541.97;6175526;28;20513;-78
2021/05/13 09:46:55;;;;;;;10.23;3.97;;;;;;;14.14;66.41;100548.13;6175405;28;20423;-79
2021/05/13 09:50:08;;;;;;;10.80;4.80;;;;;;;14.10;67.53;100541.38;6176707;28;20093;-78
2021/05/13 09:53:09;;;;;;;12.43;4.53;;;;;;;13.99;68.46;100543.91;6160430;28;20051;-78
2021/05/13 09:56:24;;;;;;;7.93;4.10;;;;;;;13.95;68.29;100538.03;6162689;28;20135;-78
2021/05/13 09:59:28;;;;;;;12.30;4.22;;;;;;;14.26;67.39;100536.69;6167737;28;20055;-78
2021/05/13 10:02:28;;;;;;;14.75;4.55;;;;;;;14.32;68.42;100532.75;6171616;28;20055;-79
2021/05/13 10:05:29;;;;;;;12.82;5.68;;;;;;;14.64;66.19;100536.56;6167064;28;20126;-78
2021/05/13 10:08:30;;;;;;;13.82;4.70;;;;;;;14.41;68.07;100527.63;6170782;28;20474;-78
2021/05/13 10:11:32;;;;;;;14.10;5.90;;;;;;;14.52;66.79;100526.03;6170905;28;20059;-79
2021/05/13 10:14:34;;;;;;;14.45;4.65;;;;;;;14.45;66.69;100529.09;6165215;28;20058;-78
2021/05/13 10:17:36;;;;;;;10.93;4.82;;;;;;;14.54;66.42;100521.47;6172394;28;20051;-78
2021/05/13 10:20:37;;;;;;;17.33;6.07;;;;;;;14.32;66.27;100525.66;6174952;28;20050;-79
2021/05/13 10:23:39;;;;;;;10.90;4.43;;;;;;;14.35;67.36;100514.00;6173569;28;20081;-77
2021/05/13 10:26:44;;;;;;;15.52;5.50;;;;;;;14.36;67.10;100521.00;6169151;28;20046;-77
2021/05/13 10:29:47;;;;;;;15.38;5.65;;;;;;;14.33;68.94;100510.63;6175276;28;20562;-77
2021/05/13 10:33:16;;;;;;;14.20;5.05;;;;;;;14.65;70.39;100518.88;6174870;28;20116;-76
2021/05/13 10:36:18;;;;;;;17.58;5.00;;;;;;;14.74;67.90;100510.25;6173844;28;20101;-77
2021/05/13 10:39:19;;;;;;;9.25;3.65;;;;;;;14.76;66.86;100508.34;6173284;28;20055;-78
2021/05/13 10:42:30;;;;;;;11.25;2.78;;;;;;;15.00;64.32;100507.47;6175547;28;20104;-79
2021/05/13 10:45:37;;;;;;;10.30;4.25;;;;;;;15.17;61.80;100507.88;6174830;28;20051;-76
2021/05/13 10:48:39;;;;;;;9.57;3.22;;;;;;;15.20;61.31;100501.50;6175656;28;20051;-77
2021/05/13 10:51:41;;;;;;;6.80;3.17;;;;;;;15.34;58.82;100503.91;6175620;28;20423;-78
2021/05/13 10:54:46;;;;;;;15.90;3.30;;;;;;;15.22;60.47;100504.88;6174181;28;20047;-77
2021/05/13 10:57:49;;;;;;;10.40;3.95;;;;;;;15.39;60.52;100503.56;6173925;28;20459;-76
2021/05/13 11:00:51;;;;;;;10.95;4.15;;;;;;;15.33;65.19;100506.69;6174099;28;20423;-77
2021/05/13 11:04:34;;;;;;;15.63;5.10;;;;;;;15.34;64.41;100497.78;6174258;28;20047;-78
2021/05/13 11:07:35;;;;;;;13.90;4.20;;;;;;;15.47;63.90;100504.66;6174278;28;20047;-79
2021/05/13 11:10:54;;;;;;;12.55;4.35;;;;;;;15.87;59.18;100498.06;6174386;28;20419;-77
2021/05/13 11:13:55;;;;;;;;;;;;;;;15.82;60.04;100500.25;6174078;28;20053;-77
2021/05/13 11:17:00;;;;;;;12.38;3.92;;;;;;;15.81;59.37;100493.28;6167829;28;20016;-78
2021/05/13 11:20:18;;;;;;;10.95;3.90;;;;;;;15.64;58.32;100497.25;6165648;28;20051;-78
2021/05/13 11:23:22;;;;;;;14.43;4.10;;;;;;;15.55;61.60;100487.34;6175184;28;20047;-78
2021/05/13 11:26:23;;;;;;;12.40;3.38;;;;;;;15.73;60.77;100496.50;6173752;28;20086;-79
2021/05/13 11:29:24;;;;;;;18.60;4.75;;;;;;;15.95;57.42;100487.72;6174053;28;20054;-78
2021/05/13 11:32:27;;;;;;;8.18;3.20;;;;;;;16.01;58.07;100495.16;6173403;28;20134;-78
2021/05/13 11:35:28;;;;;;;12.90;4.30;;;;;;;16.21;60.65;100483.81;6173644;28;20055;-77
2021/05/13 11:38:29;;;;;;;10.60;3.83;;;;;;;16.33;55.78;100489.91;6172602;28;20051;-77
2021/05/13 11:41:29;;;;;;;5.00;2.45;;;;;;;16.58;53.85;100486.09;6173269;28;20423;-77
2021/05/13 11:44:30;;;;;;;12.80;3.72;;;;;;;16.86;53.96;100484.66;6173309;28;20065;-77
2021/05/13 11:47:32;;;;;;;13.45;3.60;;;;;;;16.97;56.56;100489.91;6173103;28;20046;-77
2021/05/13 11:50:33;;;;;;;10.05;2.70;;;;;;;17.27;53.06;100488.28;6173230;28;20042;-77
2021/05/13 11:53:35;;;;;;;8.68;3.10;;;;;;;17.21;53.89;100491.44;6176156;28;20529;-77
2021/05/13 11:56:38;;;;;;;10.25;3.38;;;;;;;17.33;54.85;100486.91;6177085;28;20073;-77
2021/05/13 11:59:39;;;;;;;8.15;3.25;;;;;;;17.21;53.31;100492.31;6176925;28;20058;-77
2021/05/13 12:02:41;;;;;;;12.23;3.72;;;;;;;17.19;54.67;100488.94;6177316;28;20504;-77
2021/05/13 12:05:50;;;;;;;9.52;2.45;;;;;;;17.19;56.15;100490.75;6176647;28;20059;-77
2021/05/13 12:08:51;;;;;;;10.75;3.28;;;;;;;16.96;56.02;100471.47;6176600;28;20454;-77
2021/05/13 12:11:53;;;;;;;12.90;3.38;;;;;;;17.24;55.37;100477.91;6176894;28;20074;-77
2021/05/13 12:14:54;;;;;;;6.65;2.45;;;;;;;17.38;49.65;100477.56;6176625;28;20050;-76
2021/05/13 12:17:56;;;;;;;9.48;2.25;;;;;;;17.24;49.16;100478.75;6176581;28;20050;-77
2021/05/13 12:20:58;;;;;;;9.65;2.00;;;;;;;17.05;52.31;100477.81;6176837;28;20050;-77
2021/05/13 12:23:59;;;;;;;7.93;2.08;;;;;;;16.93;53.76;100464.59;6176820;28;20043;-78
2021/05/13 12:27:01;;;;;;;6.32;1.83;;;;;;;17.27;50.44;100475.00;6170501;28;20050;-77
2021/05/13 12:30:02;;;;;;;7.05;2.20;;;;;;;17.39;49.75;100471.28;6164417;28;20138;-77
2021/05/13 12:33:21;;;;;;;6.05;1.98;;;;;;;17.44;49.40;100457.59;6162601;28;20054;-77
2021/05/13 12:36:22;;;;;;;9.40;1.60;;;;;;;17.42;47.85;100454.25;6164899;28;20484;-78
2021/05/13 12:39:28;;;;;;;7.63;1.92;;;;;;;17.40;51.62;100462.34;6162662;28;20055;-77
2021/05/13 12:42:31;;;;;;;6.03;2.08;;;;;;;17.38;49.63;100461.63;6162899;28;20053;-77
2021/05/13 12:45:41;;;;;;;10.00;2.72;;;;;;;17.23;50.62;100455.84;6163048;28;20508;-78
2021/05/13 12:48:43;;;;;;;9.57;1.75;;;;;;;17.16;51.14;100451.16;6162325;28;20464;-79
2021/05/13 12:51:58;;;;;;;6.43;1.83;;;;;;;17.29;50.82;100449.13;6164904;28;20047;-79
2021/05/13 12:55:13;;;;;;;5.60;1.67;;;;;;;17.34;51.53;100456.72;6162791;28;20042;-77
2021/05/13 12:58:16;;;;;;;7.35;2.33;;;;;;;17.20;50.76;100447.28;6164070;28;20039;-77
2021/05/13 13:01:19;;;;;;;6.93;1.90;;;;;;;17.05;51.05;100443.28;6164081;28;20047;-77
2021/05/13 13:04:21;;;;;;;7.47;1.67;;;;;;;17.27;52.95;100436.97;6172759;28;20129;-77
2021/05/13 13:07:34;;;;;;;9.00;1.70;;;;;;;17.36;53.88;100445.00;6176003;28;20051;-77
2021/05/13 13:10:41;;;;;;;7.45;1.80;;;;;;;17.13;55.63;100433.69;6176003;28;20528;-77
2021/05/13 13:13:45;;;;;;;6.55;1.73;;;;;;;17.54;52.82;100434.59;6176080;28;20089;-77
2021/05/13 13:16:46;;;;;;;10.07;2.90;;;;;;;17.65;53.24;100428.31;6175649;28;20427;-78
2021/05/13 13:20:05;;;;;;;7.70;1.85;;;;;;;17.64;52.80;100424.81;6175832;28;20051;-77
2021/05/13 13:23:16;;;;;;;13.43;2.58;;;;;;;17.64;52.29;100429.28;6175308;28;20058;-78
2021/05/13 13:26:17;;;;;;;6.70;2.20;;;;;;;17.70;51.34;100418.94;6175547;28;20495;-76
2021/05/13 13:29:18;;;;;;;5.57;1.88;;;;;;;17.69;53.49;100411.97;6175087;28;20540;-78
2021/05/13 13:32:19;;;;;;;7.10;1.83;;;;;;;18.33;54.92;100417.81;6175783;28;20047;-78
2021/05/13 13:35:22;;;;;;;6.55;2.00;;;;;;;18.12;53.40;100405.50;6173941;28;20401;-79
2021/05/13 13:38:23;;;;;;;6.75;2.00;;;;;;;18.54;52.80;100415.88;6166740;28;20074;-77
2021/05/13 13:41:24;;;;;;;6.97;2.33;;;;;;;18.47;54.31;100415.56;6174422;28;20089;-79
2021/05/13 13:44:25;;;;;;;7.22;2.67;;;;;;;18.58;56.53;100409.28;6157607;28;20087;-79
2021/05/13 13:47:26;;;;;;;6.93;2.72;;;;;;;18.68;59.11;100417.25;6151616;28;20047;-80
2021/05/13 13:50:28;;;;;;;7.55;2.38;;;;;;;18.93;53.46;100410.50;6151310;28;20058;-79
2021/05/13 13:53:31;;;;;;;7.90;2.60;;;;;;;18.91;57.98;100405.31;6151019;28;20506;-77
2021/05/13 13:56:32;;;;;;;5.97;2.10;;;;;;;18.90;52.84;100410.81;6151261;28;20065;-78
2021/05/13 13:59:33;;;;;;;8.75;2.55;;;;;;;19.08;53.52;100400.25;6151532;28;20083;-78
2021/05/13 14:02:35;;;;;;;8.98;2.30;;;;;;;19.25;53.05;100396.78;6152355;28;20145;-78